Time;durP1;ratioP1;P1;durP2;ratioP2;P2;SDS_P1;SDS_P2;PMS_P1;PMS_P2;Temp;Humidity;BMP_temperature;BMP_pressure;BME280_temperature;BME280_humidity;BME280_pressure;Samples;Min_cycle;Max_cycle;Signal;HPM_P1;HPM_P2
2020/12/08 00:01:33;;;;;;;28.63;11.98;;;3.20;99.90;;;;;;5018463;28;20080;-67
2020/12/08 00:03:59;;;;;;;29.02;12.68;;;3.20;99.90;;;;;;5020613;28;20286;-67
2020/12/08 00:06:24;;;;;;;34.75;13.63;;;3.20;99.90;;;;;;5017484;28;20048;-67
2020/12/08 00:08:50;;;;;;;39.65;13.35;;;3.20;99.90;;;;;;5015827;28;20030;-67
2020/12/08 00:11:16;;;;;;;35.97;13.50;;;3.20;99.90;;;;;;5020706;28;20036;-67
2020/12/08 00:13:45;;;;;;;32.45;11.40;;;3.20;99.90;;;;;;5018973;28;20042;-67
2020/12/08 00:16:12;;;;;;;32.75;12.40;;;3.20;99.90;;;;;;5019314;28;20032;-67
2020/12/08 00:18:38;;;;;;;32.15;12.15;;;3.20;99.90;;;;;;5015246;28;20030;-67
2020/12/08 00:21:04;;;;;;;35.58;12.90;;;3.20;99.90;;;;;;5017757;28;20032;-67
2020/12/08 00:23:30;;;;;;;24.92;11.35;;;3.20;99.90;;;;;;5022281;28;20116;-68
2020/12/08 00:25:55;;;;;;;33.88;12.23;;;3.20;99.90;;;;;;5014242;28;20029;-68
2020/12/08 00:28:21;;;;;;;31.83;12.98;;;3.10;99.90;;;;;;5018853;28;20041;-68
2020/12/08 00:30:47;;;;;;;28.27;12.40;;;3.10;99.90;;;;;;5021585;28;20124;-67
2020/12/08 00:33:12;;;;;;;32.75;13.38;;;3.10;99.90;;;;;;5023640;28;20124;-66
2020/12/08 00:35:38;;;;;;;32.08;13.80;;;3.00;99.90;;;;;;5035316;28;20123;-68
2020/12/08 00:38:03;;;;;;;34.17;13.65;;;3.00;99.90;;;;;;5031069;28;20041;-67
2020/12/08 00:40:29;;;;;;;26.90;11.85;;;3.10;99.90;;;;;;5025582;28;20033;-67
2020/12/08 00:42:54;;;;;;;27.77;12.27;;;3.10;99.90;;;;;;5015897;28;20058;-68
2020/12/08 00:45:20;;;;;;;31.77;12.50;;;3.10;99.90;;;;;;5016732;28;20442;-67
2020/12/08 00:47:48;;;;;;;28.85;11.65;;;3.10;99.90;;;;;;5015799;28;20535;-67
2020/12/08 00:50:14;;;;;;;28.33;11.75;;;3.10;99.90;;;;;;5016048;28;20037;-67
2020/12/08 00:52:39;;;;;;;23.13;11.32;;;3.10;99.90;;;;;;5018049;28;20056;-67
2020/12/08 00:55:06;;;;;;;24.77;10.63;;;3.00;99.90;;;;;;5017276;28;20034;-68
2020/12/08 00:57:32;;;;;;;31.75;12.13;;;3.00;99.90;;;;;;5018333;28;20053;-67
2020/12/08 00:59:58;;;;;;;31.40;12.40;;;3.00;99.90;;;;;;5018319;28;20049;-67
2020/12/08 01:02:23;;;;;;;32.10;13.80;;;3.00;99.90;;;;;;5019621;28;20474;-68
2020/12/08 01:04:49;;;;;;;34.80;12.63;;;3.10;99.90;;;;;;5019118;28;20042;-68
2020/12/08 01:07:15;;;;;;;31.23;12.80;;;3.00;99.90;;;;;;5018635;28;20037;-67
2020/12/08 01:09:41;;;;;;;41.40;14.20;;;3.00;99.90;;;;;;5041473;28;20080;-67
2020/12/08 01:12:07;;;;;;;38.17;16.38;;;3.00;99.90;;;;;;5019439;28;20037;-67
2020/12/08 01:14:32;;;;;;;41.17;14.55;;;2.90;99.90;;;;;;5016745;28;20038;-67
2020/12/08 01:17:02;;;;;;;38.88;15.65;;;2.90;99.90;;;;;;5018566;28;20065;-68
2020/12/08 01:19:28;;;;;;;33.40;13.52;;;3.00;99.90;;;;;;5012136;28;20038;-68
2020/12/08 01:21:55;;;;;;;39.95;14.57;;;3.00;99.90;;;;;;5018515;28;20037;-67
2020/12/08 01:24:21;;;;;;;40.88;15.52;;;3.00;99.90;;;;;;5016192;28;20409;-68
2020/12/08 01:26:46;;;;;;;47.67;15.85;;;3.00;99.90;;;;;;5018842;28;20026;-67
2020/12/08 01:29:13;;;;;;;39.05;14.68;;;3.00;99.90;;;;;;5017932;28;20079;-67
2020/12/08 01:31:39;;;;;;;35.40;14.50;;;3.00;99.90;;;;;;5040989;28;20080;-67
2020/12/08 01:34:05;;;;;;;34.30;14.50;;;3.00;99.90;;;;;;5019163;28;20026;-68
2020/12/08 01:36:30;;;;;;;37.47;15.57;;;3.00;99.90;;;;;;5039602;28;20030;-67
2020/12/08 01:38:56;;;;;;;35.35;14.32;;;3.00;99.90;;;;;;5019660;28;20144;-67
2020/12/08 01:41:22;;;;;;;37.78;16.08;;;3.00;99.90;;;;;;5015373;28;20041;-68
2020/12/08 01:43:54;;;;;;;38.60;14.82;;;3.00;99.90;;;;;;5018466;28;20034;-67
2020/12/08 01:46:25;;;;;;;39.63;16.02;;;3.00;99.90;;;;;;5015415;28;20082;-68
2020/12/08 01:48:52;;;;;;;41.17;15.38;;;3.00;99.90;;;;;;5019265;28;20041;-68
2020/12/08 01:51:20;;;;;;;36.33;15.73;;;3.00;99.90;;;;;;5015486;28;20037;-67
2020/12/08 01:53:48;;;;;;;37.80;14.70;;;3.10;99.90;;;;;;5016966;28;20033;-68
2020/12/08 01:56:14;;;;;;;38.10;15.15;;;3.10;99.90;;;;;;5018186;28;20467;-67
2020/12/08 01:58:40;;;;;;;35.80;14.77;;;3.10;99.90;;;;;;5018271;28;20037;-67
2020/12/08 02:01:06;;;;;;;35.20;15.45;;;3.10;99.90;;;;;;5044729;28;20038;-67
2020/12/08 02:03:31;;;;;;;36.58;15.57;;;3.10;99.90;;;;;;5022729;28;20112;-67
2020/12/08 02:05:57;;;;;;;39.47;14.88;;;3.10;99.90;;;;;;5020124;28;20478;-67
2020/12/08 02:08:30;;;;;;;42.00;17.33;;;3.10;99.90;;;;;;5023229;28;20680;-68
2020/12/08 02:10:56;;;;;;;38.08;15.73;;;3.10;99.90;;;;;;5015152;28;20042;-67
2020/12/08 02:13:23;;;;;;;38.45;15.93;;;3.10;99.90;;;;;;5023646;28;20033;-68
2020/12/08 02:15:48;;;;;;;37.95;15.02;;;3.10;99.90;;;;;;5019789;28;20034;-67
2020/12/08 02:18:14;;;;;;;41.53;16.73;;;3.10;99.90;;;;;;5022106;28;20121;-68
2020/12/08 02:20:41;;;;;;;36.35;15.18;;;3.10;99.90;;;;;;5018363;28;20072;-67
2020/12/08 02:23:06;;;;;;;43.00;16.77;;;3.00;99.90;;;;;;5022241;28;20034;-67
2020/12/08 02:25:32;;;;;;;34.25;14.90;;;3.10;99.90;;;;;;5020306;28;20030;-67
2020/12/08 02:27:57;;;;;;;38.40;17.13;;;3.10;99.90;;;;;;5021469;28;20029;-67
2020/12/08 02:30:23;;;;;;;37.90;15.85;;;3.10;99.90;;;;;;5019938;28;20064;-68
2020/12/08 02:32:48;;;;;;;37.15;15.60;;;3.00;99.90;;;;;;5019568;28;20092;-67
2020/12/08 02:35:14;;;;;;;35.50;14.90;;;3.00;99.90;;;;;;5045472;28;20022;-67
2020/12/08 02:37:39;;;;;;;38.55;16.23;;;2.90;99.90;;;;;;5021012;28;20045;-67
2020/12/08 02:40:05;;;;;;;41.33;15.98;;;2.90;99.90;;;;;;5044455;28;20486;-68
2020/12/08 02:42:31;;;;;;;38.08;15.32;;;2.80;99.90;;;;;;5022623;28;20398;-68
2020/12/08 02:44:57;;;;;;;36.17;16.25;;;2.70;99.90;;;;;;5019932;28;20062;-67
2020/12/08 02:47:23;;;;;;;43.80;17.00;;;2.70;99.90;;;;;;5023682;28;20044;-67
2020/12/08 02:49:49;;;;;;;39.60;16.63;;;2.70;99.90;;;;;;5019438;28;20464;-67
2020/12/08 02:52:14;;;;;;;42.38;16.60;;;2.70;99.90;;;;;;5027152;28;21211;-69
2020/12/08 02:54:40;;;;;;;39.78;16.10;;;2.70;99.90;;;;;;5029865;28;20037;-69
2020/12/08 02:57:06;;;;;;;36.65;16.23;;;2.70;99.90;;;;;;5030253;28;20022;-67
2020/12/08 02:59:33;;;;;;;41.65;17.27;;;2.60;99.90;;;;;;5022109;28;20270;-67
2020/12/08 03:01:58;;;;;;;39.97;17.02;;;2.60;99.90;;;;;;5019803;28;20056;-67
2020/12/08 03:04:24;;;;;;;41.20;17.63;;;2.60;99.90;;;;;;5024368;28;20041;-66
2020/12/08 03:06:50;;;;;;;37.17;15.55;;;2.60;99.90;;;;;;5017385;28;20053;-68
2020/12/08 03:09:16;;;;;;;42.40;15.93;;;2.60;99.90;;;;;;5022030;28;20038;-68
2020/12/08 03:11:41;;;;;;;37.60;15.20;;;2.70;99.90;;;;;;5017522;28;20516;-67
2020/12/08 03:14:07;;;;;;;37.35;15.30;;;2.70;99.90;;;;;;5020109;28;20129;-68
2020/12/08 03:16:34;;;;;;;34.25;15.75;;;2.70;99.90;;;;;;5021037;28;20057;-67
2020/12/08 03:18:59;;;;;;;35.17;14.18;;;2.70;99.90;;;;;;5018863;28;20083;-67
2020/12/08 03:21:26;;;;;;;35.05;14.55;;;2.70;99.90;;;;;;5018460;28;20037;-67
2020/12/08 03:23:51;;;;;;;34.00;14.40;;;2.70;99.90;;;;;;5021575;28;20087;-66
2020/12/08 03:26:21;;;;;;;37.35;14.10;;;2.70;99.90;;;;;;5017576;28;20453;-67
2020/12/08 03:28:47;;;;;;;30.30;12.48;;;2.80;99.90;;;;;;5044591;28;20034;-70
2020/12/08 03:31:12;;;;;;;29.75;13.48;;;2.80;99.90;;;;;;5019252;28;20036;-67
2020/12/08 03:33:38;;;;;;;33.40;13.68;;;2.80;99.90;;;;;;5020658;28;20072;-68
2020/12/08 03:36:03;;;;;;;27.52;12.52;;;2.80;99.90;;;;;;5019786;28;20067;-68
2020/12/08 03:38:29;;;;;;;28.20;11.05;;;2.70;99.90;;;;;;5018898;28;20088;-67
2020/12/08 03:40:55;;;;;;;29.45;11.95;;;2.70;99.90;;;;;;5020886;28;20052;-67
2020/12/08 03:43:20;;;;;;;26.73;12.05;;;2.70;99.90;;;;;;5018603;28;20042;-66
2020/12/08 03:45:46;;;;;;;23.65;11.00;;;2.70;99.90;;;;;;5021058;28;20037;-67
2020/12/08 03:48:11;;;;;;;27.58;11.80;;;2.70;99.90;;;;;;5018724;28;20040;-67
2020/12/08 03:50:37;;;;;;;29.05;11.43;;;2.70;99.90;;;;;;5019475;28;20040;-67
2020/12/08 03:53:02;;;;;;;26.20;10.52;;;2.70;99.90;;;;;;5019179;28;20112;-67
2020/12/08 03:55:28;;;;;;;23.40;10.63;;;2.60;99.90;;;;;;5019046;28;20038;-67
2020/12/08 03:57:53;;;;;;;23.33;9.90;;;2.60;99.90;;;;;;5020192;28;20025;-68
2020/12/08 04:00:19;;;;;;;24.77;10.27;;;2.60;99.90;;;;;;5018227;28;20054;-68
2020/12/08 04:02:44;;;;;;;25.48;10.00;;;2.50;99.90;;;;;;5045072;28;20045;-67
2020/12/08 04:05:10;;;;;;;24.52;10.68;;;2.60;99.90;;;;;;5018587;28;20037;-67
2020/12/08 04:07:36;;;;;;;22.42;10.05;;;2.60;99.90;;;;;;5020075;28;20038;-68
2020/12/08 04:10:01;;;;;;;23.85;9.93;;;2.60;99.90;;;;;;5019096;28;20036;-67
2020/12/08 04:12:27;;;;;;;19.98;8.73;;;2.60;99.90;;;;;;5042322;28;20121;-67
2020/12/08 04:14:52;;;;;;;20.55;8.85;;;2.60;99.90;;;;;;5021019;28;20071;-68
2020/12/08 04:17:19;;;;;;;20.67;8.20;;;2.70;99.90;;;;;;5041160;28;20120;-67
2020/12/08 04:19:45;;;;;;;19.48;9.05;;;2.70;99.90;;;;;;5020925;28;20032;-67
2020/12/08 04:22:11;;;;;;;17.95;8.23;;;2.70;99.90;;;;;;5016187;28;20042;-67
2020/12/08 04:24:36;;;;;;;20.98;8.43;;;2.70;99.90;;;;;;5018762;28;20316;-67
2020/12/08 04:27:02;;;;;;;24.98;8.40;;;2.80;99.90;;;;;;5020924;28;20481;-67
2020/12/08 04:29:28;;;;;;;21.95;8.35;;;2.80;99.90;;;;;;5021890;28;20030;-67
2020/12/08 04:31:53;;;;;;;25.42;8.45;;;2.80;99.90;;;;;;5017909;28;20022;-67
2020/12/08 04:34:19;;;;;;;18.05;7.85;;;2.90;99.90;;;;;;5020625;28;20022;-67
2020/12/08 04:36:45;;;;;;;23.45;8.52;;;2.90;99.90;;;;;;5013357;28;20093;-68
2020/12/08 04:39:11;;;;;;;18.70;7.47;;;2.90;99.90;;;;;;5019853;28;20021;-67
2020/12/08 04:41:37;;;;;;;19.40;7.93;;;3.00;99.90;;;;;;5018218;28;20041;-67
2020/12/08 04:44:05;;;;;;;16.02;7.57;;;3.00;99.90;;;;;;5018934;28;20033;-67
2020/12/08 04:46:30;;;;;;;16.20;7.88;;;3.10;99.90;;;;;;5019107;28;20030;-67
2020/12/08 04:48:56;;;;;;;14.65;6.85;;;3.10;99.90;;;;;;5018297;28;20045;-67
2020/12/08 04:51:22;;;;;;;17.98;7.95;;;3.10;99.90;;;;;;5015686;28;20113;-67
2020/12/08 04:53:51;;;;;;;14.35;6.95;;;3.10;99.90;;;;;;5040946;28;20033;-68
2020/12/08 04:56:17;;;;;;;18.40;7.90;;;3.10;99.90;;;;;;5012996;28;20073;-67
2020/12/08 04:58:43;;;;;;;17.98;7.30;;;3.10;99.90;;;;;;5020281;28;20060;-68
2020/12/08 05:01:09;;;;;;;14.38;6.65;;;3.10;99.90;;;;;;5040353;28;20418;-67
2020/12/08 05:03:36;;;;;;;16.75;7.88;;;3.10;99.90;;;;;;5043181;28;20045;-67
2020/12/08 05:06:04;;;;;;;18.67;7.82;;;3.10;99.90;;;;;;5018304;28;20060;-67
2020/12/08 05:08:30;;;;;;;16.52;7.20;;;3.10;99.90;;;;;;5018592;28;20133;-67
2020/12/08 05:11:06;;;;;;;19.58;8.25;;;3.10;99.90;;;;;;5019647;28;20148;-67
2020/12/08 05:13:31;;;;;;;16.50;7.03;;;3.00;99.90;;;;;;5018627;28;20034;-67
2020/12/08 05:15:59;;;;;;;21.30;8.60;;;2.90;99.90;;;;;;5019771;28;20036;-67
2020/12/08 05:18:24;;;;;;;18.70;7.55;;;3.00;99.90;;;;;;5041351;28;20034;-67
2020/12/08 05:20:50;;;;;;;18.50;7.78;;;2.90;99.90;;;;;;5019830;28;20501;-68
2020/12/08 05:23:16;;;;;;;16.45;7.10;;;2.90;99.90;;;;;;5016553;28;20042;-67
2020/12/08 05:25:44;;;;;;;16.13;7.20;;;2.80;99.90;;;;;;5020983;28;20030;-67
2020/12/08 05:28:19;;;;;;;15.35;7.43;;;2.80;99.90;;;;;;5016461;28;20053;-70
2020/12/08 05:30:46;;;;;;;15.18;7.32;;;2.80;99.90;;;;;;5011905;28;20026;-67
2020/12/08 05:33:16;;;;;;;17.83;7.55;;;2.80;99.90;;;;;;5009109;28;20037;-68
2020/12/08 05:35:46;;;;;;;15.00;7.55;;;2.70;99.90;;;;;;5011205;28;20057;-67
2020/12/08 05:38:14;;;;;;;21.38;8.23;;;2.70;99.90;;;;;;5010645;28;20443;-67
2020/12/08 05:40:44;;;;;;;19.02;8.48;;;2.60;99.90;;;;;;5012775;28;20033;-67
2020/12/08 05:43:09;;;;;;;20.63;7.60;;;2.50;99.90;;;;;;5018790;28;20080;-67
2020/12/08 05:45:37;;;;;;;16.35;7.38;;;2.50;99.90;;;;;;5041614;28;20034;-68
2020/12/08 05:48:02;;;;;;;15.38;7.50;;;2.50;99.90;;;;;;5044995;28;20030;-67
2020/12/08 05:50:28;;;;;;;18.17;8.90;;;2.50;99.90;;;;;;5015778;28;20576;-67
2020/12/08 05:53:02;;;;;;;17.52;7.45;;;2.40;99.90;;;;;;5017183;28;20080;-67
2020/12/08 05:55:31;;;;;;;22.00;8.50;;;2.40;99.90;;;;;;5017865;28;20033;-67
2020/12/08 05:58:06;;;;;;;16.07;7.60;;;2.40;99.90;;;;;;5017840;28;20037;-68
2020/12/08 06:00:32;;;;;;;19.30;7.10;;;2.40;99.90;;;;;;5017323;28;20045;-67
2020/12/08 06:03:14;;;;;;;16.58;8.45;;;2.30;99.90;;;;;;5018633;28;20030;-67
2020/12/08 06:05:48;;;;;;;16.08;7.40;;;2.30;99.90;;;;;;5002439;28;20052;-67
2020/12/08 06:08:21;;;;;;;16.20;7.20;;;2.30;99.90;;;;;;5008815;28;20079;-67
2020/12/08 06:10:51;;;;;;;20.48;9.15;;;2.30;99.90;;;;;;5016808;28;20042;-67
2020/12/08 06:13:27;;;;;;;19.75;9.10;;;2.30;99.90;;;;;;5019050;28;20445;-67
2020/12/08 06:15:53;;;;;;;18.08;8.10;;;2.30;99.90;;;;;;5013140;28;20041;-67
2020/12/08 06:18:34;;;;;;;18.38;8.23;;;2.20;99.90;;;;;;5014835;28;20034;-67
2020/12/08 06:21:03;;;;;;;16.52;7.80;;;2.20;99.90;;;;;;5013740;28;20045;-67
2020/12/08 06:23:28;;;;;;;16.77;7.72;;;2.20;99.90;;;;;;5015925;28;20030;-67
2020/12/08 06:26:01;;;;;;;18.73;8.25;;;2.20;99.90;;;;;;5016686;28;20072;-67
2020/12/08 06:28:27;;;;;;;17.98;7.75;;;2.10;99.90;;;;;;5016695;28;20083;-67
2020/12/08 06:31:03;;;;;;;15.98;7.50;;;2.10;99.90;;;;;;5018297;28;20482;-67
2020/12/08 06:33:30;;;;;;;19.70;8.77;;;2.10;99.90;;;;;;5016481;28;20030;-67
2020/12/08 06:36:00;;;;;;;21.92;8.85;;;2.10;99.90;;;;;;5016926;28;20061;-67
2020/12/08 06:38:27;;;;;;;20.30;8.82;;;2.10;99.90;;;;;;5015069;28;20037;-68
2020/12/08 06:40:54;;;;;;;20.27;8.27;;;2.10;99.90;;;;;;5014846;28;20042;-68
2020/12/08 06:43:21;;;;;;;20.38;9.13;;;2.00;99.90;;;;;;5017337;28;20064;-67
2020/12/08 06:45:47;;;;;;;17.73;7.43;;;2.00;99.90;;;;;;5017066;28;20038;-67
2020/12/08 06:48:20;;;;;;;23.33;8.93;;;2.00;99.90;;;;;;5021994;28;20029;-67
2020/12/08 06:50:47;;;;;;;16.05;7.68;;;2.00;99.90;;;;;;5038619;28;20056;-67
2020/12/08 06:53:12;;;;;;;20.90;9.70;;;1.90;99.90;;;;;;5042534;28;20040;-67
2020/12/08 06:55:44;;;;;;;22.05;8.65;;;2.00;99.90;;;;;;5036594;28;20033;-68
2020/12/08 06:58:09;;;;;;;18.05;8.15;;;2.00;99.90;;;;;;5015768;28;20033;-67
2020/12/08 07:00:35;;;;;;;20.35;9.60;;;2.10;99.90;;;;;;5018713;28;20120;-67
2020/12/08 07:03:01;;;;;;;23.30;8.90;;;2.20;99.90;;;;;;5039745;28;20066;-68
2020/12/08 07:05:32;;;;;;;24.45;9.52;;;2.30;99.90;;;;;;5016758;28;20046;-67
2020/12/08 07:07:59;;;;;;;22.60;8.82;;;2.30;99.90;;;;;;5020332;28;20402;-67
2020/12/08 07:10:25;;;;;;;23.98;8.23;;;2.40;99.90;;;;;;5019951;28;20065;-67
2020/12/08 07:12:53;;;;;;;20.00;8.95;;;2.40;99.90;;;;;;5019677;28;20497;-67
2020/12/08 07:15:20;;;;;;;20.58;8.80;;;2.50;99.90;;;;;;5020758;28;20091;-67
2020/12/08 07:17:56;;;;;;;18.88;8.48;;;2.60;99.90;;;;;;5015954;28;20517;-68
2020/12/08 07:20:24;;;;;;;19.67;7.82;;;2.60;99.90;;;;;;5019055;28;20052;-67
2020/12/08 07:22:49;;;;;;;18.73;7.50;;;2.60;99.90;;;;;;5015653;28;20053;-67
2020/12/08 07:25:16;;;;;;;18.55;8.57;;;2.60;99.90;;;;;;5020665;28;20057;-67
2020/12/08 07:27:48;;;;;;;19.90;8.32;;;2.70;99.90;;;;;;5018457;28;20041;-67
2020/12/08 07:30:16;;;;;;;18.20;8.30;;;2.70;99.90;;;;;;5020379;28;20030;-67
2020/12/08 07:32:42;;;;;;;23.60;8.25;;;2.70;99.90;;;;;;5018629;28;20042;-67
2020/12/08 07:35:18;;;;;;;18.98;8.05;;;2.70;99.90;;;;;;5021407;28;20043;-67
2020/12/08 07:37:44;;;;;;;19.92;7.82;;;2.70;99.90;;;;;;5017434;28;20022;-67
2020/12/08 07:40:11;;;;;;;18.00;8.13;;;2.70;99.90;;;;;;5019739;28;20083;-67
2020/12/08 07:42:38;;;;;;;18.65;8.55;;;2.70;99.90;;;;;;5021610;28;20036;-67
2020/12/08 07:45:08;;;;;;;17.98;7.90;;;2.80;99.90;;;;;;5011968;28;20571;-67
2020/12/08 07:47:34;;;;;;;18.55;7.68;;;2.70;99.90;;;;;;5009703;28;20483;-67
2020/12/08 07:50:00;;;;;;;16.95;7.50;;;2.80;99.90;;;;;;5011378;28;20038;-67
2020/12/08 07:52:26;;;;;;;18.42;8.40;;;2.80;99.90;;;;;;5015534;28;20620;-67
2020/12/08 07:54:51;;;;;;;22.45;8.45;;;2.80;99.90;;;;;;5019687;28;20058;-67
2020/12/08 07:57:17;;;;;;;16.67;7.30;;;2.90;99.90;;;;;;5020190;28;20060;-67
2020/12/08 07:59:42;;;;;;;19.05;8.32;;;2.90;99.90;;;;;;5012497;28;20509;-67
2020/12/08 08:02:08;;;;;;;14.52;6.63;;;2.90;99.90;;;;;;5039037;28;20030;-68
2020/12/08 08:04:34;;;;;;;20.60;7.10;;;3.00;99.90;;;;;;5039295;28;20026;-67
2020/12/08 08:06:59;;;;;;;16.42;7.53;;;3.00;99.90;;;;;;5017166;28;20513;-67
2020/12/08 08:09:25;;;;;;;21.65;8.45;;;3.00;99.90;;;;;;5018229;28;20477;-67
2020/12/08 08:11:50;;;;;;;18.60;8.38;;;3.10;99.90;;;;;;5018689;28;20033;-66
2020/12/08 08:14:16;;;;;;;17.33;7.72;;;3.10;99.90;;;;;;5020015;28;20105;-67
2020/12/08 08:16:42;;;;;;;21.27;8.80;;;3.10;99.90;;;;;;5018570;28;20101;-67
2020/12/08 08:19:07;;;;;;;24.75;8.60;;;3.10;99.90;;;;;;5021357;28;20052;-67
2020/12/08 08:21:33;;;;;;;19.48;8.25;;;3.10;99.90;;;;;;5036150;28;20049;-67
2020/12/08 08:23:59;;;;;;;20.25;7.55;;;3.10;99.90;;;;;;5021031;28;20029;-67
2020/12/08 08:26:26;;;;;;;15.75;7.18;;;3.10;99.90;;;;;;5018901;28;20517;-68
2020/12/08 08:28:52;;;;;;;22.27;8.00;;;3.20;99.90;;;;;;5041490;28;20440;-67
2020/12/08 08:31:17;;;;;;;18.05;8.18;;;3.20;99.90;;;;;;5021829;28;20048;-67
2020/12/08 08:33:43;;;;;;;15.98;7.88;;;3.20;99.90;;;;;;5018630;28;20037;-67
2020/12/08 08:36:09;;;;;;;18.98;7.55;;;3.20;99.90;;;;;;5039038;28;20038;-67
2020/12/08 08:38:34;;;;;;;18.23;7.70;;;3.20;99.90;;;;;;5015574;28;20129;-67
2020/12/08 08:41:00;;;;;;;19.40;8.20;;;3.20;99.90;;;;;;5020394;28;20075;-67
2020/12/08 08:43:26;;;;;;;16.13;7.43;;;3.20;99.90;;;;;;5015776;28;20482;-67
2020/12/08 08:45:54;;;;;;;19.13;8.02;;;3.30;99.90;;;;;;5019263;28;20041;-68
2020/12/08 08:48:20;;;;;;;17.25;7.40;;;3.30;99.90;;;;;;5017653;28;20033;-68
2020/12/08 08:50:47;;;;;;;20.92;8.65;;;3.30;99.90;;;;;;5016388;28;20030;-67
2020/12/08 08:53:12;;;;;;;15.90;7.72;;;3.40;99.90;;;;;;5018535;28;20041;-67
2020/12/08 08:55:38;;;;;;;19.92;8.45;;;3.40;99.90;;;;;;5016802;28;20117;-67
2020/12/08 08:58:04;;;;;;;15.23;7.18;;;3.40;99.90;;;;;;5036375;28;20100;-67
2020/12/08 09:00:29;;;;;;;16.02;7.53;;;3.40;99.90;;;;;;5010785;28;20038;-67
2020/12/08 09:02:58;;;;;;;17.23;7.45;;;3.40;99.90;;;;;;5019844;28;20065;-67
2020/12/08 09:05:24;;;;;;;19.17;7.93;;;3.50;99.90;;;;;;5020167;28;20185;-67
2020/12/08 09:07:50;;;;;;;17.25;8.73;;;3.50;99.90;;;;;;5022974;28;20030;-68
2020/12/08 09:10:16;;;;;;;24.85;8.60;;;3.50;99.90;;;;;;5022270;28;20029;-67
2020/12/08 09:12:41;;;;;;;20.38;7.18;;;3.50;99.90;;;;;;5017685;28;20121;-67
2020/12/08 09:15:08;;;;;;;17.42;7.32;;;3.60;99.90;;;;;;5019603;28;20611;-67
2020/12/08 09:17:33;;;;;;;17.45;7.53;;;3.60;99.90;;;;;;5016024;28;20057;-67
2020/12/08 09:19:59;;;;;;;19.92;7.55;;;3.60;99.90;;;;;;5019910;28;20033;-67
2020/12/08 09:22:24;;;;;;;21.33;9.38;;;3.60;99.90;;;;;;5013825;28;20127;-67
2020/12/08 09:24:50;;;;;;;19.98;8.70;;;3.60;99.90;;;;;;5019164;28;20080;-67
2020/12/08 09:27:17;;;;;;;18.27;7.38;;;3.60;99.90;;;;;;5017671;28;20112;-67
2020/12/08 09:29:42;;;;;;;18.40;7.75;;;3.70;99.90;;;;;;5038933;28;20108;-67
2020/12/08 09:32:08;;;;;;;19.77;7.75;;;3.70;99.90;;;;;;5019106;28;20030;-67
2020/12/08 09:34:34;;;;;;;16.05;8.65;;;3.80;99.90;;;;;;5016254;28;20137;-67
2020/12/08 09:37:00;;;;;;;20.85;8.15;;;3.70;99.90;;;;;;5019915;28;20053;-67
2020/12/08 09:39:26;;;;;;;18.80;8.23;;;3.70;99.90;;;;;;5040391;28;20053;-67
2020/12/08 09:41:52;;;;;;;16.60;7.78;;;3.80;99.90;;;;;;5018466;28;20491;-68
2020/12/08 09:44:18;;;;;;;16.80;8.25;;;3.80;99.90;;;;;;5017647;28;20449;-67
2020/12/08 09:46:44;;;;;;;13.90;6.93;;;3.80;99.90;;;;;;5039471;28;20100;-67
2020/12/08 09:49:11;;;;;;;16.00;7.97;;;3.90;99.90;;;;;;5018896;28;20029;-67
2020/12/08 09:51:37;;;;;;;21.15;8.45;;;3.90;99.90;;;;;;5035991;28;20026;-68
2020/12/08 09:54:03;;;;;;;17.83;8.07;;;3.90;99.90;;;;;;5019973;28;20521;-67
2020/12/08 09:56:29;;;;;;;21.15;7.95;;;4.00;99.90;;;;;;5016643;28;20026;-67
2020/12/08 09:58:55;;;;;;;21.80;9.45;;;4.00;99.90;;;;;;5040928;28;20041;-67
2020/12/08 10:01:28;;;;;;;21.80;8.70;;;4.10;99.90;;;;;;5011376;28;20060;-67
2020/12/08 10:03:54;;;;;;;16.77;7.78;;;4.20;99.90;;;;;;5017243;28;20026;-68
2020/12/08 10:06:20;;;;;;;19.13;8.70;;;4.30;99.90;;;;;;5017634;28;20050;-67
2020/12/08 10:08:47;;;;;;;20.17;9.32;;;4.30;99.90;;;;;;5034607;28;20041;-68
2020/12/08 10:11:13;;;;;;;16.23;8.52;;;4.30;99.90;;;;;;5017951;28;20050;-67
2020/12/08 10:13:40;;;;;;;19.83;8.15;;;4.30;99.90;;;;;;5015971;28;20585;-67
2020/12/08 10:16:05;;;;;;;17.70;8.05;;;4.30;99.90;;;;;;5014221;28;20041;-67
2020/12/08 10:18:32;;;;;;;35.58;8.90;;;4.30;99.90;;;;;;5017023;28;20044;-67
2020/12/08 10:20:57;;;;;;;16.83;8.07;;;4.40;99.90;;;;;;5009968;28;20452;-67
2020/12/08 10:23:23;;;;;;;21.70;8.18;;;4.40;99.90;;;;;;5020066;28;20108;-67
2020/12/08 10:25:48;;;;;;;18.02;8.48;;;4.50;99.90;;;;;;5020635;28;20030;-68
2020/12/08 10:28:14;;;;;;;18.77;8.82;;;4.40;99.90;;;;;;5019033;28;20064;-69
2020/12/08 10:30:39;;;;;;;18.10;8.52;;;4.50;99.90;;;;;;5032964;28;20086;-67
2020/12/08 10:33:05;;;;;;;21.90;9.02;;;4.50;99.90;;;;;;5018331;28;20061;-66
2020/12/08 10:35:30;;;;;;;15.27;7.82;;;4.50;99.90;;;;;;5021743;28;20041;-67
2020/12/08 10:37:56;;;;;;;20.83;8.55;;;4.50;99.90;;;;;;5025254;28;20076;-67
2020/12/08 10:40:21;;;;;;;17.80;7.82;;;4.50;99.90;;;;;;5024534;28;20542;-68
2020/12/08 10:42:47;;;;;;;18.42;8.95;;;4.50;99.90;;;;;;5042074;28;20067;-67
2020/12/08 10:45:12;;;;;;;20.55;9.00;;;4.50;99.90;;;;;;5016631;28;20060;-67
2020/12/08 10:47:38;;;;;;;19.55;7.93;;;4.60;99.90;;;;;;5023444;28;20527;-67
2020/12/08 10:50:04;;;;;;;19.25;8.48;;;4.60;99.90;;;;;;5039371;28;20029;-68
2020/12/08 10:52:29;;;;;;;19.85;8.18;;;4.80;99.90;;;;;;5022227;28;20469;-67
2020/12/08 10:54:55;;;;;;;18.45;9.23;;;4.80;99.90;;;;;;5021908;28;20183;-67
2020/12/08 10:57:21;;;;;;;19.50;8.18;;;4.90;99.90;;;;;;5020793;28;20553;-67
2020/12/08 10:59:46;;;;;;;39.35;11.05;;;5.10;99.90;;;;;;5021787;28;20042;-67
2020/12/08 11:02:12;;;;;;;17.10;8.18;;;5.20;99.90;;;;;;5020266;28;20382;-67
2020/12/08 11:04:38;;;;;;;16.48;8.05;;;5.40;99.90;;;;;;5022612;28;20100;-67
2020/12/08 11:07:03;;;;;;;17.02;8.23;;;5.40;99.90;;;;;;5021232;28;20140;-67
2020/12/08 11:09:29;;;;;;;15.93;7.78;;;5.50;99.90;;;;;;5021285;28;20029;-67
2020/12/08 11:11:55;;;;;;;20.27;7.90;;;5.60;99.90;;;;;;5016770;28;20530;-67
2020/12/08 11:14:20;;;;;;;15.00;7.32;;;5.70;99.90;;;;;;5019478;28;20040;-68
2020/12/08 11:16:46;;;;;;;16.55;7.90;;;5.70;99.90;;;;;;5016263;28;20061;-68
2020/12/08 11:19:11;;;;;;;18.83;7.72;;;5.70;99.90;;;;;;5021721;28;20026;-67
2020/12/08 11:21:39;;;;;;;18.23;7.47;;;5.60;99.90;;;;;;5021316;28;20069;-67
2020/12/08 11:24:05;;;;;;;16.33;7.72;;;5.50;99.90;;;;;;5017763;28;20038;-68
2020/12/08 11:26:32;;;;;;;17.98;8.38;;;5.50;99.90;;;;;;5020867;28;20128;-67
2020/12/08 11:28:58;;;;;;;16.48;8.25;;;5.40;99.90;;;;;;5017617;28;20088;-67
2020/12/08 11:31:24;;;;;;;19.23;8.60;;;5.40;99.90;;;;;;5018023;28;20044;-67
2020/12/08 11:33:50;;;;;;;18.58;7.82;;;5.50;99.90;;;;;;5021304;28;20029;-67
2020/12/08 11:36:16;;;;;;;15.25;7.88;;;5.40;99.90;;;;;;5010357;28;20069;-67
2020/12/08 11:38:42;;;;;;;17.92;8.65;;;5.50;99.90;;;;;;5019661;28;20056;-67
2020/12/08 11:41:08;;;;;;;18.73;9.32;;;5.40;99.90;;;;;;5021286;28;20042;-67
2020/12/08 11:43:36;;;;;;;19.88;8.27;;;5.40;99.90;;;;;;5020974;28;20390;-67
2020/12/08 11:46:01;;;;;;;17.25;7.57;;;5.30;99.90;;;;;;5018118;28;20038;-67
2020/12/08 11:48:27;;;;;;;18.55;7.82;;;5.50;99.90;;;;;;5013772;28;20069;-67
2020/12/08 11:50:53;;;;;;;22.00;8.63;;;5.50;99.90;;;;;;5010954;28;20037;-68
2020/12/08 11:53:19;;;;;;;16.38;7.82;;;5.40;99.90;;;;;;5014789;28;20118;-67
2020/12/08 11:55:44;;;;;;;16.63;7.95;;;5.40;99.90;;;;;;5016469;28;20561;-67
2020/12/08 11:58:10;;;;;;;16.08;7.38;;;5.50;99.90;;;;;;5013472;28;20045;-68
2020/12/08 12:00:36;;;;;;;14.35;6.53;;;5.60;99.90;;;;;;5016951;28;20057;-68
2020/12/08 12:03:01;;;;;;;16.75;8.07;;;5.50;99.90;;;;;;5013552;28;20038;-67
2020/12/08 12:05:27;;;;;;;17.02;7.18;;;5.60;99.90;;;;;;5013715;28;20069;-68
2020/12/08 12:07:52;;;;;;;17.92;7.95;;;5.50;99.90;;;;;;5017558;28;20045;-67
2020/12/08 12:10:18;;;;;;;13.38;6.50;;;5.60;99.90;;;;;;5012895;28;20037;-68
2020/12/08 12:12:44;;;;;;;14.50;6.53;;;5.50;99.90;;;;;;5022362;28;20495;-67
2020/12/08 12:15:09;;;;;;;15.93;7.03;;;5.50;99.90;;;;;;5022139;28;20022;-67
2020/12/08 12:17:35;;;;;;;16.27;7.47;;;5.50;99.90;;;;;;5020440;28;20039;-68
2020/12/08 12:20:00;;;;;;;18.42;7.50;;;5.60;99.90;;;;;;5018247;28;20157;-68
2020/12/08 12:22:26;;;;;;;18.30;7.45;;;5.60;99.90;;;;;;5019773;28;20040;-68
2020/12/08 12:24:53;;;;;;;15.52;7.30;;;5.60;99.90;;;;;;5017817;28;20026;-67
2020/12/08 12:27:19;;;;;;;17.48;7.13;;;5.60;99.90;;;;;;5015512;28;20124;-67
2020/12/08 12:29:45;;;;;;;16.58;7.10;;;5.60;99.90;;;;;;5017982;28;20121;-67
2020/12/08 12:32:10;;;;;;;12.90;6.65;;;5.50;99.90;;;;;;5019859;28;20038;-68
2020/12/08 12:34:36;;;;;;;14.93;7.05;;;5.50;99.90;;;;;;5038317;28;20590;-67
2020/12/08 12:37:03;;;;;;;20.20;7.10;;;5.50;99.90;;;;;;5015578;28;20036;-67
2020/12/08 12:39:28;;;;;;;15.95;6.88;;;5.60;99.90;;;;;;5015710;28;20049;-67